createdAt,value
2023-02-18T00:01:23.483Z,12.00
2023-02-18T00:03:52.264Z,12.00
2023-02-18T00:06:22.908Z,12.00
2023-02-18T00:08:53.389Z,12.00
2023-02-18T00:11:23.441Z,12.00
2023-02-18T00:13:52.879Z,12.00
2023-02-18T00:16:22.578Z,12.00
2023-02-18T00:18:51.326Z,11.90
2023-02-18T00:21:19.467Z,12.00
2023-02-18T00:23:47.809Z,11.90
2023-02-18T00:26:18.980Z,11.90
2023-02-18T00:28:49.486Z,11.90
2023-02-18T00:31:22.659Z,11.90
2023-02-18T00:33:51.287Z,11.90
2023-02-18T00:36:21.372Z,11.90
2023-02-18T00:38:51.186Z,11.90
2023-02-18T00:41:22.759Z,11.80
2023-02-18T00:43:51.206Z,11.80
2023-02-18T00:46:21.643Z,11.80
2023-02-18T00:48:49.992Z,11.80
2023-02-18T00:51:18.704Z,11.80
2023-02-18T00:53:49.879Z,11.70
2023-02-18T00:56:18.262Z,11.70
2023-02-18T00:58:47.802Z,11.70
2023-02-18T01:01:16.248Z,11.70
2023-02-18T01:03:45.004Z,11.70
2023-02-18T01:06:13.951Z,11.70
2023-02-18T01:08:42.665Z,11.70
2023-02-18T01:11:12.256Z,11.70
2023-02-18T01:13:41.620Z,11.70
2023-02-18T01:16:12.123Z,11.70
2023-02-18T01:18:41.368Z,11.70
2023-02-18T01:21:10.902Z,11.70
2023-02-18T01:23:40.518Z,11.70
2023-02-18T01:26:10.036Z,11.60
2023-02-18T01:28:40.099Z,11.60
2023-02-18T01:31:09.854Z,11.60
2023-02-18T01:33:39.996Z,11.60
2023-02-18T01:36:09.825Z,11.60
2023-02-18T01:38:38.677Z,11.60
2023-02-18T01:41:07.240Z,11.60
2023-02-18T01:43:36.043Z,11.60
2023-02-18T01:46:17.217Z,11.60
2023-02-18T01:48:52.755Z,11.60
2023-02-18T01:51:24.968Z,11.50
2023-02-18T01:53:59.558Z,11.50
2023-02-18T01:56:30.679Z,11.50
2023-02-18T01:59:03.089Z,11.50
2023-02-18T02:01:33.497Z,11.50
2023-02-18T02:04:04.610Z,11.60
2023-02-18T02:06:33.267Z,11.50
2023-02-18T02:09:04.245Z,11.50
2023-02-18T02:11:56.204Z,11.50
2023-02-18T02:14:36.482Z,11.50
2023-02-18T02:17:12.422Z,11.40
2023-02-18T02:20:15.367Z,11.40
2023-02-18T02:23:42.557Z,11.30
2023-02-18T02:26:51.323Z,11.30
2023-02-18T02:29:51.816Z,11.30
2023-02-18T02:32:57.594Z,11.30
2023-02-18T02:35:31.142Z,11.40
2023-02-18T02:38:06.003Z,11.40
2023-02-18T02:40:39.324Z,11.40
2023-02-18T02:43:21.994Z,11.40
2023-02-18T02:45:55.757Z,11.40
2023-02-18T02:48:33.174Z,11.40
2023-02-18T02:51:08.395Z,11.40
2023-02-18T02:53:38.615Z,11.40
2023-02-18T02:56:07.461Z,11.50
2023-02-18T02:58:35.791Z,11.50
2023-02-18T03:01:18.531Z,11.50
2023-02-18T03:04:14.608Z,11.50
2023-02-18T03:07:09.475Z,11.50
2023-02-18T03:09:54.397Z,11.50
2023-02-18T03:12:32.283Z,11.50
2023-02-18T03:15:09.304Z,11.50
2023-02-18T03:17:44.861Z,11.60
2023-02-18T03:20:21.399Z,11.60
2023-02-18T03:22:54.411Z,11.50
2023-02-18T03:25:23.599Z,11.50
2023-02-18T03:27:54.518Z,11.50
2023-02-18T03:30:26.564Z,11.60
2023-02-18T03:32:59.563Z,11.60
2023-02-18T03:35:29.435Z,11.60
2023-02-18T03:38:03.692Z,11.60
2023-02-18T03:40:32.698Z,11.60
2023-02-18T03:43:03.184Z,11.60
2023-02-18T03:45:31.598Z,11.60
2023-02-18T03:47:59.800Z,11.60
2023-02-18T03:50:28.147Z,11.60
2023-02-18T03:52:56.394Z,11.60
2023-02-18T03:55:25.976Z,11.60
2023-02-18T03:57:54.093Z,11.60
2023-02-18T04:00:22.888Z,11.60
2023-02-18T04:02:51.058Z,11.60
2023-02-18T04:05:19.606Z,11.60
2023-02-18T04:07:47.766Z,11.60
2023-02-18T04:10:15.857Z,11.60
2023-02-18T04:12:45.394Z,11.60
2023-02-18T04:15:14.030Z,11.60
2023-02-18T04:17:43.395Z,11.60
2023-02-18T04:20:12.586Z,11.60
2023-02-18T04:22:40.703Z,11.60
2023-02-18T04:25:09.630Z,11.60
2023-02-18T04:27:37.897Z,11.60
2023-02-18T04:30:08.866Z,11.60
2023-02-18T04:32:37.064Z,11.60
2023-02-18T04:35:06.022Z,11.60
2023-02-18T04:37:34.264Z,11.60
2023-02-18T04:40:03.130Z,11.60
2023-02-18T04:42:31.371Z,11.60
2023-02-18T04:44:59.670Z,11.60
2023-02-18T04:47:29.798Z,11.60
2023-02-18T04:49:58.095Z,11.60
2023-02-18T04:52:26.410Z,11.60
2023-02-18T04:54:54.582Z,11.60
2023-02-18T04:57:22.729Z,11.60
2023-02-18T04:59:50.879Z,11.60
2023-02-18T05:02:19.188Z,11.70
2023-02-18T05:04:48.812Z,11.60
2023-02-18T05:07:17.277Z,11.70
2023-02-18T05:09:45.573Z,11.70
2023-02-18T05:12:13.723Z,11.70
2023-02-18T05:14:42.025Z,11.70
2023-02-18T05:17:10.286Z,11.70
2023-02-18T05:19:38.480Z,11.70
2023-02-18T05:22:08.156Z,11.70
2023-02-18T05:24:36.396Z,11.70
2023-02-18T05:27:04.832Z,11.70
2023-02-18T05:29:33.005Z,11.80
2023-02-18T05:32:01.281Z,11.80
2023-02-18T05:34:29.515Z,11.80
2023-02-18T05:36:57.698Z,11.80
2023-02-18T05:39:27.282Z,11.80
2023-02-18T05:41:55.513Z,11.80
2023-02-18T05:44:33.646Z,11.80
2023-02-18T05:47:04.225Z,11.80
2023-02-18T05:49:33.569Z,11.80
2023-02-18T05:52:02.391Z,11.80
2023-02-18T05:54:32.863Z,11.80
2023-02-18T05:57:01.036Z,11.80
2023-02-18T05:59:29.553Z,11.80
2023-02-18T06:01:57.906Z,11.80
2023-02-18T06:04:26.354Z,11.80
2023-02-18T06:06:54.777Z,11.80
2023-02-18T06:09:23.338Z,11.80
2023-02-18T06:11:52.919Z,11.80
2023-02-18T06:14:21.130Z,11.80
2023-02-18T06:16:49.499Z,11.70
2023-02-18T06:19:17.777Z,11.70
2023-02-18T06:21:45.975Z,11.80
2023-02-18T06:24:14.218Z,11.70
2023-02-18T06:26:43.233Z,11.80
2023-02-18T06:29:13.260Z,11.80
2023-02-18T06:31:41.489Z,11.80
2023-02-18T06:34:10.070Z,11.80
2023-02-18T06:36:40.920Z,11.80
2023-02-18T06:39:09.564Z,11.80
2023-02-18T06:41:37.803Z,11.80
2023-02-18T06:44:06.587Z,11.90
2023-02-18T06:46:36.486Z,11.90
2023-02-18T06:49:05.359Z,11.90
2023-02-18T06:51:33.553Z,11.90
2023-02-18T06:54:01.724Z,11.90
2023-02-18T06:56:31.062Z,11.90
2023-02-18T06:58:59.381Z,11.90
2023-02-18T07:01:27.726Z,12.00
2023-02-18T07:03:57.327Z,12.00
2023-02-18T07:06:25.536Z,12.00
2023-02-18T07:08:53.719Z,12.00
2023-02-18T07:11:21.943Z,12.00
2023-02-18T07:13:50.313Z,12.10
2023-02-18T07:16:18.608Z,12.10
2023-02-18T07:18:47.642Z,12.10
2023-02-18T07:21:17.513Z,12.20
2023-02-18T07:23:45.662Z,12.20
2023-02-18T07:26:15.553Z,12.20
2023-02-18T07:28:44.021Z,12.20
2023-02-18T07:31:12.372Z,12.20
2023-02-18T07:33:40.844Z,12.30
2023-02-18T07:36:10.681Z,12.30
2023-02-18T07:38:41.974Z,12.30
2023-02-18T07:41:18.221Z,12.30
2023-02-18T07:43:46.405Z,12.40
2023-02-18T07:46:14.766Z,12.40
2023-02-18T07:48:43.349Z,12.40
2023-02-18T07:51:13.650Z,12.50
2023-02-18T07:53:44.143Z,12.50
2023-02-18T07:56:12.375Z,12.60
2023-02-18T07:58:41.498Z,12.60
2023-02-18T08:01:12.394Z,12.60
2023-02-18T08:03:40.668Z,12.60
2023-02-18T08:06:10.382Z,12.60
2023-02-18T08:08:38.865Z,12.60
2023-02-18T08:11:18.424Z,12.70
2023-02-18T08:13:47.737Z,12.70
2023-02-18T08:16:16.593Z,12.70
2023-02-18T08:18:45.236Z,12.70
2023-02-18T08:21:13.381Z,12.70
2023-02-18T08:23:42.028Z,12.70
2023-02-18T08:26:12.235Z,12.70
2023-02-18T08:28:43.883Z,12.70
2023-02-18T08:31:18.917Z,12.70
2023-02-18T08:33:47.755Z,12.70
2023-02-18T08:36:16.320Z,12.70
2023-02-18T08:38:44.596Z,12.70
2023-02-18T08:41:15.740Z,12.70
2023-02-18T08:43:44.236Z,12.70
2023-02-18T08:46:19.347Z,12.80
2023-02-18T08:48:55.458Z,12.80
2023-02-18T08:51:24.215Z,12.90
2023-02-18T08:53:52.622Z,12.90
2023-02-18T08:56:22.210Z,12.90
2023-02-18T08:58:50.397Z,12.90
2023-02-18T09:01:18.623Z,13.00
2023-02-18T09:03:46.873Z,13.00
2023-02-18T09:06:15.097Z,13.00
2023-02-18T09:08:43.561Z,12.90
2023-02-18T09:11:12.388Z,13.00
2023-02-18T09:13:43.029Z,13.00
2023-02-18T09:16:14.758Z,13.10
2023-02-18T09:18:43.052Z,13.10
2023-02-18T09:21:13.690Z,13.10
2023-02-18T09:23:42.118Z,13.20
2023-02-18T09:26:14.176Z,13.20
2023-02-18T09:28:44.306Z,13.20
2023-02-18T09:31:16.233Z,13.20
2023-02-18T09:33:47.535Z,13.30
2023-02-18T09:36:16.198Z,13.30
2023-02-18T09:38:44.377Z,13.40
2023-02-18T09:41:19.985Z,13.50
2023-02-18T09:43:53.028Z,13.50
2023-02-18T09:46:25.115Z,13.60
2023-02-18T09:48:53.898Z,13.60
2023-02-18T09:51:22.041Z,13.60
2023-02-18T09:53:50.330Z,13.70
2023-02-18T09:56:28.434Z,13.70
2023-02-18T09:59:00.496Z,13.80
2023-02-18T10:01:33.155Z,13.80
2023-02-18T10:04:05.882Z,13.90
2023-02-18T10:06:36.255Z,14.00
2023-02-18T10:09:12.230Z,14.00
2023-02-18T10:11:42.565Z,14.00
2023-02-18T10:14:14.211Z,14.00
2023-02-18T10:16:44.192Z,14.00
2023-02-18T10:19:23.792Z,14.00
2023-02-18T10:21:54.604Z,14.10
2023-02-18T10:24:30.700Z,14.00
2023-02-18T10:27:00.720Z,14.10
2023-02-18T10:29:32.440Z,14.00
2023-02-18T10:32:08.434Z,14.00
2023-02-18T10:34:42.408Z,14.00
2023-02-18T10:37:29.402Z,14.10
2023-02-18T10:40:10.169Z,14.10
2023-02-18T10:42:48.392Z,14.10
2023-02-18T10:45:24.545Z,14.10
2023-02-18T10:48:06.202Z,14.10
2023-02-18T10:50:39.458Z,14.20
2023-02-18T10:53:13.377Z,14.20
2023-02-18T10:55:44.757Z,14.20
2023-02-18T10:58:28.483Z,14.30
2023-02-18T11:00:58.847Z,14.30
2023-02-18T11:03:28.767Z,14.30
2023-02-18T11:05:58.211Z,14.30
2023-02-18T11:08:29.142Z,14.30
2023-02-18T11:10:58.598Z,14.30
2023-02-18T11:13:29.272Z,14.30
2023-02-18T11:16:01.738Z,14.30
2023-02-18T11:18:38.874Z,14.40
2023-02-18T11:21:21.985Z,14.40
2023-02-18T11:23:53.298Z,14.40
2023-02-18T11:26:27.797Z,14.40
2023-02-18T11:29:01.335Z,14.50
2023-02-18T11:31:42.213Z,14.50
2023-02-18T11:34:18.500Z,14.60
2023-02-18T11:36:47.308Z,14.60
2023-02-18T11:39:21.644Z,14.60
2023-02-18T11:41:55.607Z,14.60
2023-02-18T11:44:28.613Z,14.70
2023-02-18T11:47:03.629Z,14.70
2023-02-18T11:49:33.996Z,14.80
2023-02-18T11:52:15.587Z,14.70
2023-02-18T11:54:43.945Z,14.80
2023-02-18T11:57:14.759Z,14.80
2023-02-18T11:59:43.597Z,14.80
2023-02-18T12:02:31.237Z,14.80
2023-02-18T12:05:04.996Z,14.80
2023-02-18T12:07:46.936Z,14.90
2023-02-18T12:10:20.586Z,14.90
2023-02-18T12:12:52.674Z,15.00
2023-02-18T12:15:33.167Z,15.00
2023-02-18T12:18:19.218Z,15.00
2023-02-18T12:21:16.706Z,15.00
2023-02-18T12:23:57.163Z,15.10
2023-02-18T12:26:29.921Z,15.10
2023-02-18T12:29:21.946Z,15.10
2023-02-18T12:32:06.484Z,15.20
2023-02-18T12:34:50.494Z,15.20
2023-02-18T12:37:46.441Z,15.30
2023-02-18T12:40:49.736Z,15.40
2023-02-18T12:43:32.072Z,15.40
2023-02-18T12:46:33.676Z,15.40
2023-02-18T12:49:27.515Z,15.30
2023-02-18T12:52:10.628Z,15.30
2023-02-18T12:55:19.657Z,15.20
2023-02-18T12:57:53.336Z,15.30
2023-02-18T13:00:39.572Z,15.30
2023-02-18T13:03:42.860Z,15.20
2023-02-18T13:06:32.048Z,15.20
2023-02-18T13:09:17.224Z,15.00
2023-02-18T13:11:54.701Z,15.10
2023-02-18T13:14:26.718Z,15.30
2023-02-18T13:16:58.174Z,15.40
2023-02-18T13:19:31.245Z,15.50
2023-02-18T13:22:03.953Z,15.70
2023-02-18T13:24:37.145Z,15.80
2023-02-18T13:27:15.789Z,16.00
2023-02-18T13:29:52.165Z,16.00
2023-02-18T13:32:28.852Z,15.90
2023-02-18T13:35:03.622Z,15.90
2023-02-18T13:37:37.142Z,15.90
2023-02-18T13:40:19.047Z,16.00
2023-02-18T13:42:47.247Z,15.90
2023-02-18T13:45:28.289Z,15.80
2023-02-18T13:47:57.522Z,15.70
2023-02-18T13:50:41.820Z,15.70
2023-02-18T13:53:26.687Z,15.80
2023-02-18T13:56:01.549Z,15.80
2023-02-18T13:58:43.799Z,15.80
2023-02-18T14:01:22.076Z,15.80
2023-02-18T14:03:59.801Z,15.90
2023-02-18T14:06:31.745Z,15.80
2023-02-18T14:09:37.517Z,15.80
2023-02-18T14:12:40.054Z,15.70
2023-02-18T14:15:50.926Z,15.70
2023-02-18T14:18:31.644Z,15.60
2023-02-18T14:21:23.502Z,15.60
2023-02-18T14:24:00.764Z,15.30
2023-02-18T14:26:37.980Z,15.30
2023-02-18T14:29:13.839Z,15.20
2023-02-18T14:31:52.429Z,15.10
2023-02-18T14:34:48.564Z,15.10
2023-02-18T14:37:56.930Z,15.00
2023-02-18T14:41:04.718Z,14.80
2023-02-18T14:43:53.257Z,14.80
2023-02-18T14:46:33.976Z,14.80
2023-02-18T14:49:31.123Z,14.80
2023-02-18T14:51:59.999Z,14.80
2023-02-18T14:54:31.046Z,14.70
2023-02-18T14:57:02.991Z,14.70
2023-02-18T14:59:35.960Z,14.60
2023-02-18T15:02:05.527Z,14.60
2023-02-18T15:04:33.676Z,14.70
2023-02-18T15:07:03.453Z,14.70
2023-02-18T15:09:32.472Z,14.80
2023-02-18T15:12:04.676Z,14.90
2023-02-18T15:14:36.719Z,14.90
2023-02-18T15:17:08.505Z,14.80
2023-02-18T15:19:41.044Z,14.80
2023-02-18T15:22:17.048Z,14.90
2023-02-18T15:24:46.674Z,15.00
2023-02-18T15:27:18.220Z,15.00
2023-02-18T15:29:51.452Z,15.20
2023-02-18T15:32:24.869Z,15.40
2023-02-18T15:34:54.891Z,15.70
2023-02-18T15:37:23.265Z,16.20
2023-02-18T15:39:52.542Z,16.60
2023-02-18T15:42:27.074Z,17.10
2023-02-18T15:44:58.741Z,17.50
2023-02-18T15:47:28.635Z,17.90
2023-02-18T15:50:00.698Z,18.30
2023-02-18T15:52:32.736Z,18.60
2023-02-18T15:55:04.080Z,18.90
2023-02-18T15:57:34.057Z,18.80
2023-02-18T16:00:06.768Z,18.20
2023-02-18T16:02:36.706Z,17.40
2023-02-18T16:05:14.548Z,16.80
2023-02-18T16:07:53.423Z,16.30
2023-02-18T16:10:25.000Z,15.80
2023-02-18T16:12:56.048Z,15.60
2023-02-18T16:15:28.330Z,15.30
2023-02-18T16:17:59.130Z,15.10
2023-02-18T16:20:31.921Z,15.00
2023-02-18T16:23:03.537Z,14.80
2023-02-18T16:25:44.601Z,14.70
2023-02-18T16:28:16.281Z,14.60
2023-02-18T16:30:46.454Z,14.50
2023-02-18T16:33:16.361Z,14.40
2023-02-18T16:35:50.771Z,14.20
2023-02-18T16:38:21.457Z,14.10
2023-02-18T16:40:50.052Z,14.00
2023-02-18T16:43:20.286Z,13.90
2023-02-18T16:45:50.671Z,13.80
2023-02-18T16:48:25.601Z,13.70
2023-02-18T16:50:54.356Z,13.50
2023-02-18T16:53:22.641Z,13.40
2023-02-18T16:55:51.761Z,13.30
2023-02-18T16:58:20.019Z,13.20
2023-02-18T17:00:49.973Z,13.10
2023-02-18T17:03:18.619Z,13.10
2023-02-18T17:05:48.336Z,13.00
2023-02-18T17:08:20.447Z,13.00
2023-02-18T17:10:50.599Z,12.90
2023-02-18T17:13:20.649Z,12.90
2023-02-18T17:15:51.775Z,12.90
2023-02-18T17:18:20.737Z,12.90
2023-02-18T17:20:51.841Z,12.80
2023-02-18T17:23:22.897Z,12.80
2023-02-18T17:25:52.579Z,12.80
2023-02-18T17:28:21.366Z,12.80
2023-02-18T17:30:53.235Z,12.80
2023-02-18T17:33:21.464Z,12.80
2023-02-18T17:35:51.050Z,12.70
2023-02-18T17:38:20.398Z,12.70
2023-02-18T17:40:50.070Z,12.70
2023-02-18T17:43:19.933Z,12.70
2023-02-18T17:45:51.731Z,12.60
2023-02-18T17:48:20.449Z,12.60
2023-02-18T17:50:50.123Z,12.60
2023-02-18T17:53:19.374Z,12.50
2023-02-18T17:55:48.753Z,12.50
2023-02-18T17:58:17.529Z,12.50
2023-02-18T18:00:47.250Z,12.40
2023-02-18T18:03:16.264Z,12.40
2023-02-18T18:05:48.130Z,12.30
2023-02-18T18:08:19.137Z,12.30
2023-02-18T18:10:50.496Z,12.20
2023-02-18T18:13:22.180Z,12.20
2023-02-18T18:15:51.458Z,12.10
2023-02-18T18:18:20.392Z,12.10
2023-02-18T18:20:54.365Z,12.00
2023-02-18T18:23:25.014Z,12.00
2023-02-18T18:25:55.933Z,12.00
2023-02-18T18:28:24.775Z,12.00
2023-02-18T18:30:55.135Z,12.10
2023-02-18T18:33:26.581Z,12.10
2023-02-18T18:35:57.254Z,12.10
2023-02-18T18:38:28.383Z,12.10
2023-02-18T18:40:57.660Z,12.20
2023-02-18T18:43:30.097Z,12.20
2023-02-18T18:46:00.253Z,12.30
2023-02-18T18:48:28.684Z,12.30
2023-02-18T18:50:58.399Z,12.30
2023-02-18T18:53:31.201Z,12.30
2023-02-18T18:56:01.859Z,12.20
2023-02-18T18:58:30.623Z,12.20
2023-02-18T19:01:02.210Z,12.20
2023-02-18T19:03:33.390Z,12.10
2023-02-18T19:06:01.632Z,12.00
2023-02-18T19:08:32.344Z,12.00
2023-02-18T19:11:00.582Z,12.00
2023-02-18T19:13:30.771Z,11.90
2023-02-18T19:16:04.515Z,11.90
2023-02-18T19:18:34.205Z,11.80
2023-02-18T19:21:03.496Z,11.80
2023-02-18T19:23:33.885Z,11.80
2023-02-18T19:26:02.563Z,11.90
2023-02-18T19:28:31.606Z,11.90
2023-02-18T19:31:00.119Z,11.80
2023-02-18T19:33:28.520Z,11.90
2023-02-18T19:35:56.694Z,11.80
2023-02-18T19:38:24.975Z,11.80
2023-02-18T19:40:56.738Z,11.80
2023-02-18T19:43:24.940Z,11.80
2023-02-18T19:45:53.143Z,11.70
2023-02-18T19:48:23.455Z,11.70
2023-02-18T19:50:51.624Z,11.60
2023-02-18T19:53:20.333Z,11.60
2023-02-18T19:56:01.267Z,11.50
2023-02-18T19:58:30.643Z,11.50
2023-02-18T20:00:58.976Z,11.50
2023-02-18T20:03:27.278Z,11.50
2023-02-18T20:05:55.660Z,11.50
2023-02-18T20:08:23.886Z,11.40
2023-02-18T20:10:59.143Z,11.40
2023-02-18T20:13:27.614Z,11.40
2023-02-18T20:15:55.948Z,11.40
2023-02-18T20:18:24.446Z,11.40
2023-02-18T20:20:52.672Z,11.40
2023-02-18T20:23:20.962Z,11.40
2023-02-18T20:25:49.149Z,11.40
2023-02-18T20:28:18.798Z,11.40
2023-02-18T20:30:46.967Z,11.40
2023-02-18T20:33:15.190Z,11.40
2023-02-18T20:35:43.560Z,11.50
2023-02-18T20:38:12.089Z,11.50
2023-02-18T20:40:40.291Z,11.50
2023-02-18T20:43:08.780Z,11.60
2023-02-18T20:45:39.606Z,11.60
2023-02-18T20:48:08.511Z,11.60
2023-02-18T20:50:36.868Z,11.60
2023-02-18T20:53:05.074Z,11.60
2023-02-18T20:55:33.436Z,11.60
2023-02-18T20:58:01.915Z,11.60
2023-02-18T21:00:30.208Z,11.60
2023-02-18T21:02:59.924Z,11.60
2023-02-18T21:05:28.222Z,11.60
2023-02-18T21:07:56.419Z,11.50
2023-02-18T21:10:24.744Z,11.60
2023-02-18T21:12:52.967Z,11.50
2023-02-18T21:15:21.334Z,11.60
2023-02-18T21:17:49.609Z,11.60
2023-02-18T21:20:19.703Z,11.70
2023-02-18T21:22:48.242Z,11.70
2023-02-18T21:25:16.733Z,11.70
2023-02-18T21:27:45.024Z,11.70
2023-02-18T21:30:13.753Z,11.70
2023-02-18T21:32:41.950Z,11.80
2023-02-18T21:35:10.616Z,11.80
2023-02-18T21:37:40.566Z,11.80
2023-02-18T21:40:09.459Z,11.70
2023-02-18T21:42:37.619Z,11.70
2023-02-18T21:45:06.184Z,11.80
2023-02-18T21:47:34.495Z,11.80
2023-02-18T21:50:02.819Z,11.80
2023-02-18T21:52:32.340Z,11.80
2023-02-18T21:55:02.132Z,11.80
2023-02-18T21:57:30.372Z,11.80
2023-02-18T22:00:01.760Z,11.80
2023-02-18T22:02:41.553Z,11.80
2023-02-18T22:05:10.036Z,11.80
2023-02-18T22:07:38.437Z,11.80
2023-02-18T22:10:08.385Z,11.80
2023-02-18T22:12:36.695Z,11.80
2023-02-18T22:15:05.584Z,11.80
2023-02-18T22:17:34.026Z,11.80
2023-02-18T22:20:02.642Z,11.80
2023-02-18T22:22:30.872Z,11.80
2023-02-18T22:24:59.277Z,11.80
2023-02-18T22:27:28.891Z,11.80
2023-02-18T22:29:57.488Z,11.80
2023-02-18T22:32:25.830Z,11.80
2023-02-18T22:34:54.584Z,11.70
2023-02-18T22:37:22.813Z,11.70
2023-02-18T22:39:51.167Z,11.70
2023-02-18T22:42:19.359Z,11.60
2023-02-18T22:44:48.952Z,11.60
2023-02-18T22:47:17.136Z,11.60
2023-02-18T22:49:45.390Z,11.60
2023-02-18T22:52:13.660Z,11.50
2023-02-18T22:54:41.937Z,11.50
2023-02-18T22:57:10.228Z,11.50
2023-02-18T22:59:38.538Z,11.50
2023-02-18T23:02:08.116Z,11.50
2023-02-18T23:04:36.381Z,11.50
2023-02-18T23:07:04.615Z,11.50
2023-02-18T23:09:32.866Z,11.40
2023-02-18T23:12:01.131Z,11.40
2023-02-18T23:14:30.474Z,11.40
2023-02-18T23:17:17.696Z,11.40
2023-02-18T23:19:49.357Z,11.40
2023-02-18T23:22:19.102Z,11.40
2023-02-18T23:24:49.448Z,11.40
2023-02-18T23:27:18.073Z,11.40
2023-02-18T23:29:46.534Z,11.40
2023-02-18T23:32:15.067Z,11.40
2023-02-18T23:34:43.299Z,11.40
2023-02-18T23:37:13.316Z,11.40
2023-02-18T23:39:41.838Z,11.40
2023-02-18T23:42:10.339Z,11.40
2023-02-18T23:44:38.645Z,11.40
2023-02-18T23:47:08.443Z,11.40
2023-02-18T23:49:36.662Z,11.40
2023-02-18T23:52:05.293Z,11.40
2023-02-18T23:54:35.044Z,11.40
2023-02-18T23:57:03.168Z,11.50
2023-02-18T23:59:31.291Z,11.40
